Time;durP1;ratioP1;P1;durP2;ratioP2;P2;SDS_P1;SDS_P2;PMS_P1;PMS_P2;Temp;Humidity;BMP_temperature;BMP_pressure;BME280_temperature;BME280_humidity;BME280_pressure;Samples;Min_cycle;Max_cycle;Signal;HPM_P1;HPM_P2
2022/02/17 00:00:15;;;;;;;1.00;1.00;;;10.50;99.90;;;;;;5056140;28;20269;-85
2022/02/17 00:02:44;;;;;;;1.90;1.52;;;10.60;99.90;;;;;;5056123;28;20210;-85
2022/02/17 00:05:13;;;;;;;1.58;1.45;;;10.70;99.90;;;;;;5055336;28;20216;-83
2022/02/17 00:07:40;;;;;;;1.55;1.45;;;10.60;99.90;;;;;;5059528;28;20198;-86
2022/02/17 00:10:09;;;;;;;1.10;1.10;;;10.50;99.90;;;;;;5057495;28;20240;-84
2022/02/17 00:12:36;;;;;;;2.00;1.23;;;10.20;99.90;;;;;;5057288;28;20221;-83
2022/02/17 00:15:05;;;;;;;1.83;1.65;;;10.00;99.90;;;;;;5059228;28;20208;-83
2022/02/17 00:17:32;;;;;;;2.03;1.83;;;9.70;99.90;;;;;;5058461;28;20208;-83
2022/02/17 00:20:00;;;;;;;2.15;1.52;;;9.60;99.90;;;;;;5056136;28;20567;-83
2022/02/17 00:22:27;;;;;;;1.55;1.40;;;9.50;99.90;;;;;;5056528;28;20405;-83
2022/02/17 00:24:55;;;;;;;2.30;1.65;;;9.40;99.90;;;;;;5057595;28;20441;-84
2022/02/17 00:27:23;;;;;;;1.50;1.40;;;9.30;99.90;;;;;;5062003;28;20457;-82
2022/02/17 00:29:50;;;;;;;1.00;0.90;;;9.30;99.90;;;;;;5062234;28;20224;-82
2022/02/17 00:32:17;;;;;;;2.10;1.35;;;9.30;99.90;;;;;;5063988;28;20208;-83
2022/02/17 00:34:45;;;;;;;1.58;1.48;;;9.30;99.90;;;;;;5059236;28;20474;-83
2022/02/17 00:37:12;;;;;;;0.90;0.90;;;9.30;99.90;;;;;;5060288;28;20210;-82
2022/02/17 00:39:40;;;;;;;1.10;1.00;;;9.30;99.90;;;;;;5062091;28;20227;-82
2022/02/17 00:42:07;;;;;;;2.22;1.10;;;9.30;99.90;;;;;;5063828;28;20215;-81
2022/02/17 00:44:35;;;;;;;1.00;1.00;;;9.40;99.90;;;;;;5057907;28;20506;-83
2022/02/17 00:47:02;;;;;;;1.30;1.20;;;9.40;99.90;;;;;;5057474;28;20267;-85
2022/02/17 00:49:30;;;;;;;1.10;1.00;;;9.40;99.90;;;;;;5062352;28;20225;-84
2022/02/17 00:51:58;;;;;;;0.90;0.90;;;9.50;99.90;;;;;;5065102;28;20218;-86
2022/02/17 00:54:26;;;;;;;0.90;0.90;;;9.50;99.90;;;;;;5065023;28;20206;-85
2022/02/17 00:56:56;;;;;;;1.15;0.93;;;9.50;99.90;;;;;;5060056;28;20207;-84
2022/02/17 00:59:28;;;;;;;0.80;0.80;;;9.60;99.90;;;;;;5058865;28;20280;-85
2022/02/17 01:01:56;;;;;;;0.63;0.63;;;9.70;99.90;;;;;;5060282;28;20502;-84
2022/02/17 01:04:26;;;;;;;0.77;0.70;;;9.70;99.90;;;;;;5053475;28;20392;-83
2022/02/17 01:06:54;;;;;;;2.50;0.80;;;9.80;99.90;;;;;;5063640;28;20218;-83
2022/02/17 01:09:21;;;;;;;0.60;0.50;;;9.70;99.90;;;;;;5061388;28;20548;-85
2022/02/17 01:11:49;;;;;;;1.27;1.17;;;9.80;99.90;;;;;;5054800;28;20474;-83
2022/02/17 01:14:16;;;;;;;0.80;0.80;;;9.90;99.90;;;;;;5056151;28;20211;-85
2022/02/17 01:16:43;;;;;;;0.90;0.70;;;10.00;99.90;;;;;;5059101;28;20260;-87
2022/02/17 01:19:12;;;;;;;0.60;0.60;;;10.10;99.90;;;;;;5062352;28;20208;-84
2022/02/17 01:21:39;;;;;;;0.80;0.80;;;10.20;99.90;;;;;;5063850;28;20364;-85
2022/02/17 01:24:07;;;;;;;1.38;0.90;;;10.10;99.90;;;;;;5061284;28;20197;-83
2022/02/17 01:26:35;;;;;;;0.73;0.73;;;10.00;99.90;;;;;;5056341;28;20209;-83
2022/02/17 01:29:03;;;;;;;0.80;0.80;;;10.00;99.90;;;;;;5058846;28;20257;-83
2022/02/17 01:31:32;;;;;;;1.00;0.80;;;9.80;99.90;;;;;;5052692;28;20427;-82
2022/02/17 01:34:00;;;;;;;1.08;0.80;;;9.70;99.90;;;;;;5059424;28;20200;-82
2022/02/17 01:36:27;;;;;;;1.02;0.93;;;9.60;99.90;;;;;;5060181;28;20199;-84
2022/02/17 01:38:55;;;;;;;1.90;1.80;;;9.60;99.90;;;;;;5061251;28;20259;-82
2022/02/17 01:41:23;;;;;;;1.33;0.73;;;9.50;99.90;;;;;;5057973;28;20520;-83
2022/02/17 01:43:51;;;;;;;1.05;0.70;;;9.60;99.90;;;;;;5058738;28;20369;-82
2022/02/17 01:46:38;;;;;;;0.80;0.80;;;9.60;99.90;;;;;;5059803;28;20425;-84
2022/02/17 01:49:07;;;;;;;0.70;0.60;;;9.60;99.90;;;;;;5063256;28;20207;-83
2022/02/17 01:51:37;;;;;;;0.70;0.70;;;9.70;99.90;;;;;;5057073;28;20266;-87
2022/02/17 01:54:05;;;;;;;0.57;0.55;;;9.80;99.90;;;;;;5061221;28;20220;-81
2022/02/17 01:56:35;;;;;;;0.50;0.50;;;9.90;99.90;;;;;;5057483;28;20197;-87
2022/02/17 01:59:07;;;;;;;0.82;0.60;;;10.00;99.90;;;;;;5053068;28;20192;-86
2022/02/17 02:01:35;;;;;;;0.98;0.93;;;10.00;99.90;;;;;;5062406;28;20224;-86
2022/02/17 02:04:06;;;;;;;1.23;1.10;;;10.00;99.90;;;;;;5054342;28;20491;-84
2022/02/17 02:06:34;;;;;;;0.52;0.52;;;10.00;99.90;;;;;;5061738;28;20488;-83
2022/02/17 02:09:02;;;;;;;0.60;0.60;;;10.10;99.90;;;;;;5056555;28;20201;-82
2022/02/17 02:11:29;;;;;;;0.50;0.50;;;10.10;99.90;;;;;;5060620;28;20217;-88
2022/02/17 02:13:56;;;;;;;0.77;0.77;;;10.10;99.90;;;;;;5061285;28;20185;-82
2022/02/17 02:16:24;;;;;;;0.65;0.65;;;10.10;99.90;;;;;;5053022;28;20281;-87
2022/02/17 02:18:51;;;;;;;0.50;0.50;;;10.20;99.90;;;;;;5057755;28;20491;-85
2022/02/17 02:21:23;;;;;;;0.93;0.65;;;10.30;99.90;;;;;;5060004;28;20523;-84
2022/02/17 02:23:51;;;;;;;0.90;0.65;;;10.30;99.90;;;;;;5057522;28;20289;-84
2022/02/17 02:26:18;;;;;;;1.65;1.20;;;10.20;99.90;;;;;;5057939;28;20206;-83
2022/02/17 02:28:47;;;;;;;0.70;0.70;;;10.20;99.90;;;;;;5057855;28;20287;-85
2022/02/17 02:31:14;;;;;;;0.93;0.70;;;10.20;99.90;;;;;;5059192;28;20229;-85
2022/02/17 02:33:43;;;;;;;0.63;0.63;;;10.00;99.90;;;;;;5060085;28;20538;-84
2022/02/17 02:36:10;;;;;;;0.82;0.82;;;10.00;99.90;;;;;;5054519;28;20199;-85
2022/02/17 02:38:56;;;;;;;0.90;0.90;;;10.00;99.90;;;;;;5054539;28;20229;-84
2022/02/17 02:41:23;;;;;;;0.80;0.80;;;10.00;99.90;;;;;;5056586;28;20214;-83
2022/02/17 02:43:51;;;;;;;1.08;0.98;;;10.00;99.90;;;;;;5056257;28;20234;-82
2022/02/17 02:46:18;;;;;;;0.60;0.60;;;10.10;99.90;;;;;;5059290;28;20274;-86
2022/02/17 02:48:45;;;;;;;0.70;0.70;;;10.20;99.90;;;;;;5061258;28;20198;-85
2022/02/17 02:51:13;;;;;;;1.63;1.50;;;10.40;99.90;;;;;;5056650;28;20225;-85
2022/02/17 02:53:41;;;;;;;0.80;0.80;;;10.50;99.90;;;;;;5054231;28;20198;-84
2022/02/17 02:56:09;;;;;;;0.60;0.60;;;10.50;99.90;;;;;;5061334;28;20386;-85
2022/02/17 02:58:36;;;;;;;0.68;0.68;;;10.50;99.90;;;;;;5057656;28;20248;-83
2022/02/17 03:01:04;;;;;;;0.75;0.75;;;10.40;99.90;;;;;;5055765;28;20433;-82
2022/02/17 03:03:31;;;;;;;0.75;0.70;;;10.50;99.90;;;;;;5057435;28;20221;-84
2022/02/17 03:05:58;;;;;;;1.40;0.75;;;10.60;99.90;;;;;;5061890;28;20197;-85
2022/02/17 03:08:26;;;;;;;0.57;0.57;;;10.80;99.90;;;;;;5060168;28;20203;-82
2022/02/17 03:10:53;;;;;;;1.15;0.70;;;10.80;99.90;;;;;;5054514;28;20244;-84
2022/02/17 03:13:21;;;;;;;0.68;0.60;;;11.00;99.90;;;;;;5058733;28;20198;-83
2022/02/17 03:15:48;;;;;;;0.50;0.50;;;11.00;99.90;;;;;;5060026;28;20205;-86
2022/02/17 03:18:18;;;;;;;1.00;0.98;;;11.10;99.90;;;;;;5056288;28;20213;-84
2022/02/17 03:20:46;;;;;;;0.45;0.45;;;11.20;99.90;;;;;;5058956;28;20206;-87
2022/02/17 03:23:13;;;;;;;0.50;0.50;;;11.20;99.90;;;;;;5061267;28;20280;-83
2022/02/17 03:25:41;;;;;;;0.50;0.50;;;11.30;99.90;;;;;;5060735;28;20205;-87
2022/02/17 03:28:09;;;;;;;0.50;0.50;;;11.30;99.90;;;;;;5059884;28;20225;-88
2022/02/17 03:30:36;;;;;;;0.40;0.40;;;11.40;99.90;;;;;;5060683;28;20519;-84
2022/02/17 03:33:03;;;;;;;0.50;0.50;;;11.30;99.90;;;;;;5061669;28;20427;-84
2022/02/17 03:35:31;;;;;;;0.60;0.60;;;11.30;99.90;;;;;;5059712;28;20488;-84
2022/02/17 03:37:59;;;;;;;0.40;0.40;;;11.30;99.90;;;;;;5062364;28;20210;-85
2022/02/17 03:40:26;;;;;;;0.50;0.50;;;11.40;99.90;;;;;;5062300;28;20458;-83
2022/02/17 03:42:53;;;;;;;0.60;0.50;;;11.50;99.90;;;;;;5053479;28;20241;-84
2022/02/17 03:45:22;;;;;;;0.60;0.60;;;11.40;99.90;;;;;;5054618;28;20206;-82
2022/02/17 03:47:50;;;;;;;0.73;0.68;;;11.40;99.90;;;;;;5050169;28;20201;-84
2022/02/17 03:50:17;;;;;;;0.60;0.52;;;11.30;99.90;;;;;;5058957;28;20411;-84
2022/02/17 03:52:44;;;;;;;0.90;0.77;;;11.30;99.90;;;;;;5062163;28;20221;-83
2022/02/17 03:55:12;;;;;;;5.20;1.00;;;11.20;99.90;;;;;;5056369;28;20271;-83
2022/02/17 03:57:39;;;;;;;0.40;0.40;;;11.10;99.90;;;;;;5058051;28;20207;-84
2022/02/17 04:00:07;;;;;;;1.05;1.05;;;11.10;99.90;;;;;;5057810;28;20359;-82
2022/02/17 04:02:35;;;;;;;0.70;0.70;;;11.00;99.90;;;;;;5065249;28;20217;-84
2022/02/17 04:05:03;;;;;;;1.13;0.90;;;11.00;99.90;;;;;;5064036;28;20230;-84
2022/02/17 04:07:31;;;;;;;1.75;0.93;;;11.10;99.90;;;;;;5061438;28;20263;-84
2022/02/17 04:09:59;;;;;;;0.85;0.75;;;11.20;99.90;;;;;;5064902;28;20531;-82
2022/02/17 04:12:26;;;;;;;4.30;3.65;;;11.30;99.90;;;;;;5065497;28;20198;-85
2022/02/17 04:14:54;;;;;;;2.97;0.60;;;11.60;99.90;;;;;;5061542;28;20209;-86
2022/02/17 04:17:22;;;;;;;2.83;0.82;;;9.90;99.90;;;;;;5044578;28;20201;-82
2022/02/17 04:19:50;;;;;;;3.38;1.17;;;8.30;99.90;;;;;;5062771;28;20275;-82
2022/02/17 04:22:17;;;;;;;0.60;0.55;;;7.70;99.90;;;;;;5051456;28;20227;-86
2022/02/17 04:24:45;;;;;;;1.95;0.60;;;7.40;99.90;;;;;;5043697;28;20204;-84
2022/02/17 04:27:12;;;;;;;0.77;0.60;;;7.30;99.90;;;;;;5045944;28;20535;-88
2022/02/17 04:29:40;;;;;;;0.93;0.60;;;7.30;99.90;;;;;;5045637;28;20200;-83
2022/02/17 04:32:07;;;;;;;1.40;1.30;;;7.30;99.90;;;;;;5045156;28;20553;-86
2022/02/17 04:34:35;;;;;;;0.60;0.60;;;7.20;99.90;;;;;;5045881;28;20212;-87
2022/02/17 04:37:03;;;;;;;0.70;0.70;;;7.20;99.90;;;;;;5044703;28;20208;-84
2022/02/17 04:39:30;;;;;;;6.75;1.05;;;7.20;99.90;;;;;;5045880;28;20429;-85
2022/02/17 04:44:45;;;;;;;2.97;0.70;;;7.30;99.90;;;;;;5045353;28;20489;-84
2022/02/17 04:47:12;;;;;;;2.35;0.90;;;7.30;99.90;;;;;;5045154;28;20295;-85
2022/02/17 04:49:39;;;;;;;0.70;0.70;;;7.30;99.90;;;;;;5044845;28;20200;-83
2022/02/17 04:52:07;;;;;;;2.97;1.35;;;7.30;99.90;;;;;;5043674;28;20251;-83
2022/02/17 04:54:38;;;;;;;1.35;1.25;;;7.30;99.90;;;;;;5044915;28;20208;-84
2022/02/17 04:57:06;;;;;;;2.58;1.15;;;7.40;99.90;;;;;;5044828;28;20196;-85
2022/02/17 04:59:34;;;;;;;0.80;0.80;;;7.40;99.90;;;;;;5045716;28;20414;-84
2022/02/17 05:02:02;;;;;;;3.53;2.10;;;7.50;99.90;;;;;;5045880;28;20445;-85
2022/02/17 05:04:30;;;;;;;5.05;2.33;;;7.50;99.90;;;;;;5046373;28;20204;-85
2022/02/17 05:06:58;;;;;;;2.20;1.73;;;7.50;99.90;;;;;;5046886;28;20291;-86
2022/02/17 05:09:25;;;;;;;1.50;1.38;;;7.50;99.90;;;;;;5044126;28;20208;-86
2022/02/17 05:11:53;;;;;;;3.42;1.45;;;7.40;99.90;;;;;;5058450;28;20341;-85
2022/02/17 05:14:21;;;;;;;5.10;1.83;;;7.40;99.90;;;;;;5056747;28;20271;-83
2022/02/17 05:16:48;;;;;;;2.92;1.02;;;7.40;99.90;;;;;;5065903;28;20207;-85
2022/02/17 05:19:15;;;;;;;3.35;1.30;;;7.40;99.90;;;;;;5065648;28;20196;-82
2022/02/17 05:21:43;;;;;;;2.10;1.23;;;7.40;99.90;;;;;;5064892;28;20198;-88
2022/02/17 05:24:11;;;;;;;1.17;0.85;;;7.50;99.90;;;;;;5064930;28;20199;-86
2022/02/17 05:26:38;;;;;;;4.10;1.75;;;7.40;99.90;;;;;;5055937;28;20397;-83
2022/02/17 05:29:05;;;;;;;1.58;1.48;;;7.40;99.90;;;;;;5064857;28;20200;-82
2022/02/17 05:31:33;;;;;;;2.25;1.20;;;7.50;99.90;;;;;;5051490;28;20219;-82
2022/02/17 05:34:00;;;;;;;4.20;1.58;;;7.50;99.90;;;;;;5046214;28;20237;-86
2022/02/17 05:36:27;;;;;;;7.03;1.10;;;7.50;99.90;;;;;;5054479;28;20207;-86
2022/02/17 05:38:55;;;;;;;2.78;1.50;;;7.50;99.90;;;;;;5061333;28;20203;-81
2022/02/17 05:41:22;;;;;;;1.52;1.30;;;7.70;99.90;;;;;;5053829;28;20212;-86
2022/02/17 05:43:50;;;;;;;1.08;0.90;;;7.70;99.90;;;;;;5047170;28;20210;-81
2022/02/17 05:46:17;;;;;;;1.23;0.90;;;7.60;99.90;;;;;;5054906;28;20199;-86
2022/02/17 05:48:45;;;;;;;4.97;1.50;;;7.60;99.90;;;;;;5056182;28;20229;-82
2022/02/17 05:51:17;;;;;;;4.72;1.23;;;7.60;99.90;;;;;;5064140;28;20551;-84
2022/02/17 05:53:45;;;;;;;0.73;0.70;;;7.60;99.90;;;;;;5061831;28;20202;-87
2022/02/17 05:56:13;;;;;;;2.13;1.23;;;7.60;99.90;;;;;;5065668;28;20202;-86
2022/02/17 05:58:41;;;;;;;2.10;1.80;;;7.60;99.90;;;;;;5066213;28;20512;-84
2022/02/17 06:01:08;;;;;;;1.00;0.77;;;7.50;99.90;;;;;;5062592;28;20334;-86
2022/02/17 06:03:36;;;;;;;0.80;0.80;;;7.50;99.90;;;;;;5064315;28;20196;-85
2022/02/17 06:06:04;;;;;;;2.45;1.05;;;7.50;99.90;;;;;;5063195;28;20226;-86
2022/02/17 06:08:32;;;;;;;1.40;0.80;;;7.50;99.90;;;;;;5065404;28;20199;-88
2022/02/17 06:11:00;;;;;;;3.20;1.50;;;7.50;99.90;;;;;;5062223;28;20215;-85
2022/02/17 06:13:27;;;;;;;1.58;1.10;;;7.50;99.90;;;;;;5060185;28;20470;-89
2022/02/17 06:15:55;;;;;;;2.55;1.33;;;7.50;99.90;;;;;;5066614;28;20388;-88
2022/02/17 06:18:23;;;;;;;5.07;1.23;;;7.60;99.90;;;;;;5065254;28;20223;-89
2022/02/17 06:20:50;;;;;;;6.03;0.95;;;7.60;99.90;;;;;;5065240;28;20459;-89
2022/02/17 06:23:17;;;;;;;1.17;1.00;;;7.60;99.90;;;;;;5067457;28;20266;-85
2022/02/17 06:25:45;;;;;;;0.80;0.80;;;7.70;99.90;;;;;;5065834;28;20199;-87
2022/02/17 06:28:13;;;;;;;1.02;0.77;;;7.70;99.90;;;;;;5065989;28;20195;-85
2022/02/17 06:30:44;;;;;;;1.35;0.85;;;7.70;99.90;;;;;;5065595;28;20199;-86
2022/02/17 06:33:12;;;;;;;2.38;1.67;;;7.80;99.90;;;;;;5065501;28;20528;-89
2022/02/17 06:35:41;;;;;;;1.55;0.70;;;7.70;99.90;;;;;;5064300;28;20263;-85
2022/02/17 06:38:10;;;;;;;1.00;0.90;;;7.70;99.90;;;;;;5065232;28;20203;-84
2022/02/17 06:40:37;;;;;;;2.78;0.70;;;7.70;99.90;;;;;;5052357;28;20200;-88
2022/02/17 06:43:07;;;;;;;1.40;0.80;;;7.60;99.90;;;;;;5052079;28;20199;-86
2022/02/17 06:45:35;;;;;;;0.65;0.65;;;7.50;99.90;;;;;;5044690;28;20196;-85
2022/02/17 06:48:04;;;;;;;0.73;0.73;;;7.40;99.90;;;;;;5046599;28;20203;-85
2022/02/17 06:50:33;;;;;;;0.60;0.50;;;7.30;99.90;;;;;;5054933;28;20195;-88
2022/02/17 06:53:02;;;;;;;1.95;0.80;;;7.20;99.90;;;;;;5053494;28;20546;-86
2022/02/17 06:55:30;;;;;;;0.80;0.80;;;7.20;99.90;;;;;;5063634;28;20195;-88
2022/02/17 06:57:57;;;;;;;1.40;1.25;;;7.20;99.90;;;;;;5063425;28;20223;-87
2022/02/17 07:00:25;;;;;;;1.05;0.80;;;7.10;99.90;;;;;;5064467;28;20218;-89
2022/02/17 07:02:54;;;;;;;3.08;1.23;;;7.10;99.90;;;;;;5063069;28;20285;-86
2022/02/17 07:05:25;;;;;;;0.95;0.95;;;7.10;99.90;;;;;;5063875;28;20211;-86
2022/02/17 07:07:55;;;;;;;0.68;0.68;;;7.10;99.90;;;;;;5057532;28;20296;-89
2022/02/17 07:13:11;;;;;;;0.70;0.68;;;7.10;99.90;;;;;;5063936;28;20477;-87
2022/02/17 07:15:39;;;;;;;2.35;1.55;;;7.10;99.90;;;;;;5051382;28;20281;-85
2022/02/17 07:18:09;;;;;;;1.30;1.10;;;7.20;99.90;;;;;;5058582;28;20210;-88
2022/02/17 07:20:43;;;;;;;2.17;1.98;;;7.30;99.90;;;;;;5056295;28;20234;-85
2022/02/17 07:23:12;;;;;;;1.10;0.80;;;7.40;99.90;;;;;;5059016;28;20200;-85
2022/02/17 07:25:39;;;;;;;1.80;1.30;;;7.50;99.90;;;;;;5054151;28;20401;-89
2022/02/17 07:28:07;;;;;;;1.95;1.08;;;7.60;99.90;;;;;;5062362;28;20243;-86
2022/02/17 07:30:36;;;;;;;1.15;0.80;;;7.60;99.90;;;;;;5063157;28;20335;-86
2022/02/17 07:33:04;;;;;;;1.20;0.80;;;7.50;99.90;;;;;;5053945;28;20220;-89
2022/02/17 07:35:33;;;;;;;1.45;1.30;;;7.50;99.90;;;;;;5064205;28;20381;-89
2022/02/17 07:38:01;;;;;;;2.63;1.05;;;7.50;99.90;;;;;;5064657;28;20214;-89
2022/02/17 07:40:28;;;;;;;2.00;1.00;;;7.60;99.90;;;;;;5064132;28;20416;-89
2022/02/17 07:42:55;;;;;;;0.77;0.63;;;7.80;99.90;;;;;;5064110;28;20222;-87
2022/02/17 07:45:23;;;;;;;2.22;1.00;;;8.10;99.90;;;;;;5061912;28;20207;-86
2022/02/17 07:47:54;;;;;;;1.48;1.25;;;8.80;99.90;;;;;;5064236;28;20267;-86
2022/02/17 07:50:27;;;;;;;1.70;1.10;;;9.30;99.90;;;;;;5055763;28;20517;-89
2022/02/17 07:53:01;;;;;;;2.35;1.30;;;9.40;99.90;;;;;;5054946;28;20231;-86
2022/02/17 07:55:29;;;;;;;0.93;0.75;;;9.30;99.90;;;;;;5063830;28;20261;-87
2022/02/17 07:58:02;;;;;;;0.82;0.82;;;9.20;99.90;;;;;;5062758;28;20192;-87
2022/02/17 08:00:30;;;;;;;1.10;1.00;;;9.00;99.90;;;;;;5063638;28;20227;-86
2022/02/17 08:02:57;;;;;;;0.95;0.60;;;8.90;99.90;;;;;;5063112;28;20238;-84
2022/02/17 08:05:25;;;;;;;0.68;0.65;;;8.90;99.90;;;;;;5062112;28;20242;-86
2022/02/17 08:07:53;;;;;;;1.27;0.90;;;8.80;99.90;;;;;;5061908;28;20200;-86
2022/02/17 08:10:23;;;;;;;0.95;0.70;;;9.00;99.90;;;;;;5056113;28;20224;-87
2022/02/17 08:12:50;;;;;;;0.75;0.75;;;9.60;99.90;;;;;;5059517;28;20228;-88
2022/02/17 08:15:18;;;;;;;0.73;0.70;;;9.70;99.90;;;;;;5062068;28;20216;-88
2022/02/17 08:17:46;;;;;;;3.10;0.80;;;9.60;99.90;;;;;;5061810;28;20208;-85
2022/02/17 08:20:13;;;;;;;1.05;0.63;;;9.70;99.90;;;;;;5062714;28;20197;-85
2022/02/17 08:22:50;;;;;;;1.20;1.10;;;9.70;99.90;;;;;;5058734;28;20225;-87
2022/02/17 08:25:20;;;;;;;1.67;1.00;;;9.60;99.90;;;;;;5057842;28;20372;-86
2022/02/17 08:27:48;;;;;;;1.33;1.25;;;10.10;99.90;;;;;;5040998;28;20537;-86
2022/02/17 08:30:17;;;;;;;2.90;1.00;;;10.80;99.90;;;;;;5040866;28;20203;-87
2022/02/17 08:32:46;;;;;;;1.90;1.20;;;10.40;99.90;;;;;;5041651;28;20272;-87
2022/02/17 08:35:14;;;;;;;0.93;0.85;;;9.90;99.90;;;;;;5042442;28;20201;-86
2022/02/17 08:37:43;;;;;;;2.28;1.15;;;9.90;99.90;;;;;;5045036;28;20196;-87
2022/02/17 08:40:11;;;;;;;2.05;0.90;;;10.40;99.90;;;;;;5048944;28;20203;-88
2022/02/17 08:42:40;;;;;;;1.38;1.05;;;10.20;99.90;;;;;;5041718;28;20202;-85
2022/02/17 08:45:09;;;;;;;1.98;1.23;;;10.00;99.90;;;;;;5040920;28;20230;-84
2022/02/17 08:47:37;;;;;;;1.13;1.05;;;10.30;99.90;;;;;;5044802;28;20238;-84
2022/02/17 08:50:06;;;;;;;3.45;1.13;;;11.10;99.90;;;;;;5045593;28;20234;-86
2022/02/17 08:52:39;;;;;;;2.92;1.35;;;12.00;99.90;;;;;;5043732;28;20555;-85
2022/02/17 08:55:07;;;;;;;1.85;0.77;;;12.70;99.90;;;;;;5046608;28;20230;-84
2022/02/17 08:57:35;;;;;;;4.63;1.17;;;12.90;99.90;;;;;;5060255;28;20417;-86
2022/02/17 09:00:04;;;;;;;2.58;0.80;;;13.00;99.90;;;;;;5044482;28;20208;-88
2022/02/17 09:02:31;;;;;;;4.30;1.48;;;13.30;99.90;;;;;;5053232;28;20266;-86
2022/02/17 09:04:59;;;;;;;2.15;1.13;;;13.60;99.90;;;;;;5066089;28;20361;-87
2022/02/17 09:07:26;;;;;;;1.67;1.15;;;13.50;99.90;;;;;;5069798;28;20282;-87
2022/02/17 09:09:55;;;;;;;1.95;1.33;;;13.50;99.90;;;;;;5066903;28;20489;-90
2022/02/17 09:12:22;;;;;;;1.17;1.00;;;13.50;99.90;;;;;;5064451;28;20234;-86
2022/02/17 09:14:50;;;;;;;1.27;0.85;;;13.70;99.90;;;;;;5064012;28;20200;-85
2022/02/17 09:17:17;;;;;;;4.00;1.20;;;14.00;99.90;;;;;;5065578;28;20196;-87
2022/02/17 09:19:45;;;;;;;0.88;0.70;;;13.80;99.90;;;;;;5065410;28;20187;-87
2022/02/17 09:22:12;;;;;;;3.78;2.20;;;13.90;99.90;;;;;;5060442;28;20195;-84
2022/02/17 09:24:39;;;;;;;2.90;1.75;;;13.80;99.90;;;;;;5057829;28;20201;-86
2022/02/17 09:27:07;;;;;;;1.70;1.05;;;13.50;99.90;;;;;;5045065;28;20512;-84
2022/02/17 09:29:35;;;;;;;0.80;0.80;;;13.00;99.90;;;;;;5053408;28;20196;-86
2022/02/17 09:32:22;;;;;;;2.65;1.00;;;12.40;99.90;;;;;;5060169;28;20237;-86
2022/02/17 09:34:51;;;;;;;4.38;1.20;;;11.90;99.90;;;;;;5064242;28;20199;-84
2022/02/17 09:37:18;;;;;;;2.60;1.33;;;11.50;99.90;;;;;;5063547;28;20599;-86
2022/02/17 09:39:47;;;;;;;5.18;1.50;;;11.20;99.90;;;;;;5063909;28;20381;-86
2022/02/17 09:42:15;;;;;;;1.67;0.80;;;11.20;99.90;;;;;;5064313;28;20275;-85
2022/02/17 09:44:43;;;;;;;0.80;0.77;;;11.30;99.90;;;;;;5063543;28;20203;-86
2022/02/17 09:47:11;;;;;;;5.97;1.70;;;11.40;99.90;;;;;;5065060;28;20202;-87
2022/02/17 09:49:43;;;;;;;1.02;0.70;;;11.30;99.90;;;;;;5064006;28;20191;-88
2022/02/17 09:52:13;;;;;;;2.78;1.42;;;11.20;99.90;;;;;;5064563;28;20220;-87
2022/02/17 09:54:41;;;;;;;1.85;1.00;;;11.10;99.90;;;;;;5065234;28;20202;-86
2022/02/17 09:57:08;;;;;;;3.03;1.52;;;11.10;99.90;;;;;;5062900;28;20451;-87
2022/02/17 09:59:37;;;;;;;3.85;1.00;;;11.00;99.90;;;;;;5052368;28;20642;-86
2022/02/17 10:02:08;;;;;;;2.15;0.68;;;11.00;99.90;;;;;;5048245;28;20369;-82
2022/02/17 10:04:36;;;;;;;2.13;1.52;;;11.00;99.90;;;;;;5058280;28;20357;-90
2022/02/17 10:07:07;;;;;;;4.85;1.00;;;11.00;99.90;;;;;;5064233;28;20207;-85
2022/02/17 10:09:41;;;;;;;0.85;0.85;;;11.00;99.90;;;;;;5064416;28;20546;-85
2022/02/17 10:12:11;;;;;;;1.10;1.10;;;11.00;99.90;;;;;;5059319;28;20227;-86
2022/02/17 10:14:39;;;;;;;1.15;1.05;;;11.00;99.90;;;;;;5059696;28;20195;-87
2022/02/17 10:17:09;;;;;;;1.10;0.90;;;11.10;99.90;;;;;;5043230;28;20203;-88
2022/02/17 10:19:40;;;;;;;1.15;0.77;;;11.10;99.90;;;;;;5044791;28;20321;-87
2022/02/17 10:22:14;;;;;;;0.82;0.70;;;11.20;99.90;;;;;;5044415;28;20233;-87
2022/02/17 10:24:45;;;;;;;1.15;0.70;;;11.20;99.90;;;;;;5044178;28;20226;-85
2022/02/17 10:27:23;;;;;;;0.68;0.68;;;11.30;99.90;;;;;;5044731;28;20199;-85
2022/02/17 10:30:10;;;;;;;1.25;1.02;;;11.20;99.90;;;;;;5044367;28;20195;-87
2022/02/17 10:33:00;;;;;;;1.13;0.80;;;11.00;99.90;;;;;;5044851;28;20230;-87
2022/02/17 10:35:28;;;;;;;1.10;0.80;;;11.00;99.90;;;;;;5043669;28;20496;-87
2022/02/17 10:37:59;;;;;;;2.40;0.60;;;11.00;99.90;;;;;;5044518;28;20203;-88
2022/02/17 10:40:34;;;;;;;3.55;0.82;;;11.00;99.90;;;;;;5045184;28;20190;-87
2022/02/17 10:43:04;;;;;;;0.90;0.70;;;11.00;99.90;;;;;;5044866;28;20202;-85
2022/02/17 10:45:43;;;;;;;1.35;0.82;;;11.10;99.90;;;;;;5044905;28;20200;-87
2022/02/17 10:48:23;;;;;;;5.18;0.82;;;11.00;99.90;;;;;;5043957;28;20198;-89
2022/02/17 10:51:15;;;;;;;1.42;0.82;;;11.00;99.90;;;;;;5045481;28;20213;-86
2022/02/17 10:53:46;;;;;;;2.50;0.90;;;11.10;99.90;;;;;;5054420;28;20451;-86
2022/02/17 10:56:17;;;;;;;6.70;2.90;;;11.00;99.90;;;;;;5064065;28;20186;-88
2022/02/17 10:58:50;;;;;;;0.60;0.60;;;11.10;99.90;;;;;;5066367;28;20228;-86
2022/02/17 11:01:20;;;;;;;4.30;1.33;;;11.10;99.90;;;;;;5063332;28;20514;-86
2022/02/17 11:03:48;;;;;;;1.17;1.02;;;11.10;99.90;;;;;;5062964;28;20199;-86
2022/02/17 11:06:18;;;;;;;2.63;1.67;;;11.10;99.90;;;;;;5065100;28;20208;-87
2022/02/17 11:08:48;;;;;;;2.13;1.17;;;11.20;99.90;;;;;;5046945;28;20504;-88
2022/02/17 11:11:18;;;;;;;7.53;1.45;;;11.20;99.90;;;;;;5064063;28;20365;-86
2022/02/17 11:13:47;;;;;;;2.08;1.20;;;11.20;99.90;;;;;;5063731;28;20225;-91
2022/02/17 11:16:21;;;;;;;2.75;0.82;;;11.30;99.90;;;;;;5058595;28;20200;-87
2022/02/17 11:18:51;;;;;;;1.15;0.50;;;11.30;99.90;;;;;;5045219;28;20250;-88
2022/02/17 11:21:19;;;;;;;2.45;0.95;;;11.20;99.90;;;;;;5043828;28;20230;-87
2022/02/17 11:23:47;;;;;;;5.57;1.60;;;11.10;99.90;;;;;;5044475;28;20202;-86
2022/02/17 11:26:29;;;;;;;2.25;1.02;;;11.10;99.90;;;;;;5044420;28;20210;-87
2022/02/17 11:29:23;;;;;;;10.25;1.30;;;11.40;99.90;;;;;;5044066;28;20218;-87
2022/02/17 11:32:02;;;;;;;0.80;0.80;;;11.50;99.90;;;;;;5044644;28;20203;-84
2022/02/17 11:34:35;;;;;;;3.15;1.10;;;11.70;99.90;;;;;;5042677;28;20203;-86
2022/02/17 11:37:30;;;;;;;4.00;0.90;;;12.00;99.90;;;;;;5051446;28;20400;-88
2022/02/17 11:40:07;;;;;;;4.85;1.35;;;12.00;99.90;;;;;;5055118;28;20214;-87
2022/02/17 11:42:36;;;;;;;2.17;1.33;;;12.00;99.90;;;;;;5060529;28;20191;-86
2022/02/17 11:45:19;;;;;;;2.00;1.13;;;11.90;99.90;;;;;;5066853;28;20209;-90
2022/02/17 11:48:07;;;;;;;5.50;0.93;;;11.70;99.90;;;;;;5043996;28;20207;-86
2022/02/17 11:50:46;;;;;;;12.90;1.48;;;11.50;99.90;;;;;;5060834;28;20190;-87
2022/02/17 11:53:31;;;;;;;2.80;1.05;;;11.50;99.90;;;;;;5063490;28;20299;-86
2022/02/17 11:56:07;;;;;;;0.98;0.88;;;11.70;99.90;;;;;;5054917;28;20514;-87
2022/02/17 11:58:41;;;;;;;1.85;1.20;;;11.70;99.90;;;;;;5058006;28;20221;-87
2022/02/17 12:01:27;;;;;;;1.33;1.08;;;11.70;99.90;;;;;;5071272;28;20199;-88
2022/02/17 12:04:21;;;;;;;2.72;0.75;;;11.80;99.90;;;;;;5053902;28;20280;-86
2022/02/17 12:07:02;;;;;;;2.60;1.08;;;11.90;99.90;;;;;;5044308;28;20198;-88
2022/02/17 12:09:30;;;;;;;6.22;1.15;;;12.20;99.90;;;;;;5059322;28;20215;-84
2022/02/17 12:12:24;;;;;;;1.25;1.00;;;12.30;99.90;;;;;;5055677;28;20210;-88
2022/02/17 12:14:52;;;;;;;3.60;1.25;;;12.20;99.90;;;;;;5063090;28;20205;-87
2022/02/17 12:17:35;;;;;;;2.72;0.90;;;12.10;99.90;;;;;;5062893;28;20261;-86
2022/02/17 12:20:07;;;;;;;2.45;1.40;;;12.10;99.90;;;;;;5065209;28;20545;-85
2022/02/17 12:22:35;;;;;;;1.85;1.27;;;12.00;99.90;;;;;;5066213;28;20202;-87
2022/02/17 12:25:20;;;;;;;3.13;1.25;;;11.70;99.90;;;;;;5068309;28;20417;-85
2022/02/17 12:27:53;;;;;;;1.00;1.00;;;11.60;99.90;;;;;;5067326;28;20210;-86
2022/02/17 12:30:44;;;;;;;0.88;0.77;;;11.40;99.90;;;;;;5067167;28;20226;-87
2022/02/17 12:33:19;;;;;;;8.45;2.72;;;11.50;99.90;;;;;;5067818;28;20388;-83
2022/02/17 12:35:57;;;;;;;3.40;0.95;;;11.50;99.90;;;;;;5066352;28;20444;-88
2022/02/17 12:38:31;;;;;;;1.95;1.17;;;11.60;99.90;;;;;;5059137;28;20236;-87
2022/02/17 12:41:04;;;;;;;5.25;0.95;;;11.60;99.90;;;;;;5066956;28;20237;-87
2022/02/17 12:43:38;;;;;;;9.30;1.30;;;11.60;99.90;;;;;;5066702;28;20535;-88
2022/02/17 12:46:16;;;;;;;2.35;1.35;;;11.40;99.90;;;;;;5066792;28;20204;-88
2022/02/17 12:48:44;;;;;;;1.77;0.90;;;11.30;99.90;;;;;;5067118;28;20191;-89
2022/02/17 12:51:33;;;;;;;2.20;1.40;;;11.20;99.90;;;;;;5067630;28;20210;-88
2022/02/17 12:54:11;;;;;;;2.55;1.25;;;11.10;99.90;;;;;;5067889;28;20250;-86
2022/02/17 12:56:40;;;;;;;6.10;1.30;;;11.20;99.90;;;;;;5066392;28;20200;-84
2022/02/17 12:59:16;;;;;;;6.10;1.50;;;11.20;99.90;;;;;;5068225;28;20202;-88
2022/02/17 13:01:55;;;;;;;1.60;1.25;;;11.20;99.90;;;;;;5065623;28;20218;-88
2022/02/17 13:04:22;;;;;;;2.10;0.82;;;11.30;99.90;;;;;;5065920;28;20201;-86
2022/02/17 13:06:50;;;;;;;2.33;1.38;;;11.40;99.90;;;;;;5065411;28;20262;-85
2022/02/17 13:09:26;;;;;;;3.00;1.30;;;11.50;99.90;;;;;;5065902;28;20200;-86